TFM - Tactical Decision Aid
ID: Runway Winds: CIG/VIS Threshold:

KGWO - Greenwood/Leflore Ar, MS, US

Updated at: 1035 UTC 07 Dec 2022
Latest TAF at: 0520 UTC 07 Dec 2022

TAF Board

Time0953Z 07/11Z 07/12Z 07/13Z 07/14Z 07/15Z 07/16Z 07/17Z 07/18Z 07/19Z 07/20Z 07/21Z 07/22Z 07/23Z>>
Type OBS PRVL PRVL PRVL PRVL
  [TEMP]  
PRVL
  [TEMP]  
PRVL PRVL PRVL PRVL PRVL PRVL PRVL PRVL
VIS 10 >6 >6 >6 >6
  [6]  
>6
  [6]  
>6 >6 >6 >6 >6 >6 >6 >6
CIG 45 50 50 50 18
  [15]  
18
  [15]  
18 22 22 22 22 60 60 60
Cover BKN OVC OVC OVC OVC
  [OVC]  
OVC
  [OVC]  
OVC BKN BKN BKN BKN BKN BKN BKN
FltCat VFR VFR VFR VFR MVFR
  [MVFR]  
MVFR
  [MVFR]  
MVFR MVFR MVFR MVFR MVFR VFR VFR VFR
WX -- VCSH VCSH VCSH --
  [-SHRA BR]  
--
  [-SHRA BR]  
-- -- -- -- -- -- -- --
WDir 210 190 190 190 200
[200]
200
[200]
200 220 220 220 220 210 210 210
WSpd 9 6 6 6 6
  [6]  
6
  [6]  
6 8 8 8 8 7 7 7
WGst -- -- -- -- --
  [--]  
--
  [--]  
-- -- -- -- -- -- -- --
WSHgt -- -- -- -- --
[--]
--
[--]
-- -- -- -- -- -- -- --
WSDir -- -- -- -- --
[--]
--
[--]
-- -- -- -- -- -- -- --
WSSpd -- -- -- -- --
[--]
--
[--]
-- -- -- -- -- -- -- --

TDA Impact Legend

  None Marginal Slight Moderate High
Visibility (sm) >5 3≤X≤5 2≤X<3 0.75≤X<2 <0.75
Ceiling (100 ft) >30 10≤X≤30 6≤X<10 4≤X<6 <4
Wind Speed (kt) <15 15≤X<25 25≤X<30 ≥30
Wind Gust (kt) <15 15≤X<25 25≤X<35 ≥35
Weather No Wx Reported VCTS -TS,-FZRA TS,FZRA +TS,+FZRA
TAF
KGWO 070520Z 0706/0806 19006KT P6SM OVC050
  FM070900 19006KT P6SM VCSH OVC050
  FM071400 20006KT P6SM OVC018
  TEMPO 0714/0716 6SM -SHRA BR OVC015
  FM071700 22008KT P6SM BKN022
  FM072100 21007KT P6SM BKN060


METAR
KGWO 070953Z AUTO 21009KT 10SM BKN045 BKN065 22/18 A3014 RMK AO2 SLP203 T02220183
KGWO 070853Z AUTO 21009KT 10SM FEW046 OVC065 22/18 A3013 RMK AO2 SLP200 T02220183 53014
KGWO 070753Z AUTO 21009KT 10SM BKN043 OVC060 23/18 A3011 RMK AO2 SLP196 T02280183

Radar Display
Forecast Discussion